Time;durP1;ratioP1;P1;durP2;ratioP2;P2;SDS_P1;SDS_P2;PMS_P1;PMS_P2;Temp;Humidity;BMP_temperature;BMP_pressure;BME280_temperature;BME280_humidity;BME280_pressure;Samples;Min_cycle;Max_cycle;Signal;HPM_P1;HPM_P2
2022/10/29 00:00:54;;;;;;;2.03;1.13;;;;;;;15.69;82.44;96246.75;4350631;32;20219;-58
2022/10/29 00:03:20;;;;;;;7.80;0.67;;;;;;;15.66;82.32;96255.38;4334645;32;20242;-59
2022/10/29 00:05:57;;;;;;;1.00;1.00;;;;;;;15.65;82.97;96240.41;4355390;32;20209;-58
2022/10/29 00:08:23;;;;;;;0.90;0.90;;;;;;;15.64;82.21;96246.84;4341553;33;20209;-58
2022/10/29 00:10:48;;;;;;;4.43;1.53;;;;;;;15.61;82.44;96255.47;4341093;33;20216;-58
2022/10/29 00:13:14;;;;;;;0.87;0.87;;;;;;;15.60;82.64;96255.78;4339398;32;20215;-59
2022/10/29 00:15:39;;;;;;;1.50;1.20;;;;;;;15.58;82.50;96253.44;4357181;32;21306;-59
2022/10/29 00:18:05;;;;;;;0.80;0.80;;;;;;;15.64;82.50;96254.88;4329144;33;20216;-59
2022/10/29 00:20:30;;;;;;;0.80;0.80;;;;;;;15.59;82.46;96254.97;4343474;32;20220;-59
2022/10/29 00:22:55;;;;;;;2.33;1.00;;;;;;;15.63;82.36;96253.28;4329666;32;20260;-59
2022/10/29 00:25:21;;;;;;;1.40;1.27;;;;;;;15.65;82.42;96253.00;4347161;32;20260;-61
2022/10/29 00:27:46;;;;;;;0.93;0.90;;;;;;;15.62;82.90;96241.00;4354106;32;20224;-60
2022/10/29 00:30:12;;;;;;;1.70;1.00;;;;;;;15.65;83.74;96247.66;4343129;32;20200;-60
2022/10/29 00:32:37;;;;;;;0.70;0.70;;;;;;;15.67;82.62;96248.12;4359055;32;20236;-60
2022/10/29 00:35:03;;;;;;;5.30;1.80;;;;;;;15.69;82.98;96240.59;4349172;32;20189;-59
2022/10/29 00:37:28;;;;;;;0.87;0.87;;;;;;;15.66;82.77;96235.84;4329726;32;20205;-59
2022/10/29 00:39:53;;;;;;;1.50;1.40;;;;;;;15.62;82.77;96234.88;4330531;32;20205;-60
2022/10/29 00:42:19;;;;;;;5.40;1.40;;;;;;;15.60;82.80;96245.88;4333717;32;20190;-60
2022/10/29 00:44:44;;;;;;;0.70;0.70;;;;;;;15.65;82.58;96248.44;4335769;32;20189;-59
2022/10/29 00:47:18;;;;;;;0.43;0.43;;;;;;;15.67;82.91;96243.56;4342310;32;20269;-59
2022/10/29 00:49:46;;;;;;;0.60;0.60;;;;;;;15.59;83.20;96246.97;4334887;32;20205;-60
2022/10/29 00:52:14;;;;;;;0.47;0.47;;;;;;;15.60;82.92;96253.91;4341660;32;20189;-59
2022/10/29 00:54:45;;;;;;;1.00;0.90;;;;;;;15.59;82.42;96252.31;4330218;32;20256;-60
2022/10/29 00:57:15;;;;;;;1.40;1.10;;;;;;;15.52;82.42;96246.56;4333041;32;20307;-60
2022/10/29 00:59:43;;;;;;;1.10;1.10;;;;;;;15.57;82.48;96248.38;4342830;32;20185;-59
2022/10/29 01:02:09;;;;;;;2.87;1.60;;;;;;;15.47;81.73;96249.34;4335875;32;20232;-59
2022/10/29 01:04:35;;;;;;;0.90;0.90;;;;;;;15.47;82.74;96244.00;4330434;32;20193;-60
2022/10/29 01:07:01;;;;;;;0.90;0.90;;;;;;;15.48;82.24;96250.94;4340731;32;20189;-59
2022/10/29 01:09:26;;;;;;;1.10;1.07;;;;;;;15.41;82.20;96253.22;4331054;32;20190;-59
2022/10/29 01:11:58;;;;;;;13.73;1.00;;;;;;;15.37;82.67;96249.59;4328776;32;20284;-59
2022/10/29 01:14:36;;;;;;;1.17;1.07;;;;;;;15.36;82.25;96246.13;4344665;32;20236;-60
2022/10/29 01:17:49;;;;;;;1.03;1.03;;;;;;;15.35;82.38;96257.91;4345813;32;20209;-59
2022/10/29 01:20:30;;;;;;;7.10;1.57;;;;;;;15.30;82.12;96254.53;4313598;32;20189;-60
2022/10/29 01:23:15;;;;;;;1.20;1.10;;;;;;;15.30;81.77;96251.87;4343535;32;20207;-60
2022/10/29 01:26:13;;;;;;;0.83;0.83;;;;;;;15.27;82.24;96263.16;4333340;32;20254;-60
2022/10/29 01:28:53;;;;;;;0.97;0.73;;;;;;;15.23;82.31;96264.84;4332671;32;20197;-60
2022/10/29 01:31:23;;;;;;;0.80;0.80;;;;;;;15.15;82.87;96268.25;4344598;32;20193;-60
2022/10/29 01:33:54;;;;;;;5.27;1.07;;;;;;;15.20;82.63;96268.91;4332142;32;20189;-59
2022/10/29 01:36:35;;;;;;;0.90;0.90;;;;;;;15.11;82.85;96258.13;4339582;32;20205;-59
2022/10/29 01:39:03;;;;;;;1.20;1.20;;;;;;;15.12;82.64;96274.97;4343057;32;20194;-59
2022/10/29 01:42:12;;;;;;;1.00;1.00;;;;;;;15.17;82.29;96266.06;4331833;32;20228;-60
2022/10/29 01:44:50;;;;;;;1.20;1.10;;;;;;;15.11;82.41;96260.81;4346461;32;20201;-59
2022/10/29 01:47:18;;;;;;;0.60;0.60;;;;;;;15.09;83.07;96254.97;4345435;32;20190;-59
2022/10/29 01:49:49;;;;;;;5.67;2.17;;;;;;;15.02;82.79;96259.91;4345797;32;20253;-59
2022/10/29 01:52:17;;;;;;;1.60;1.00;;;;;;;15.02;83.50;96259.91;4324119;32;20186;-59
2022/10/29 01:54:44;;;;;;;1.00;1.00;;;;;;;15.05;81.58;96253.97;4344616;32;20213;-60
2022/10/29 01:57:27;;;;;;;0.90;0.80;;;;;;;15.11;82.64;96258.13;4329614;32;20322;-60
2022/10/29 01:59:56;;;;;;;4.90;1.07;;;;;;;15.03;82.47;96250.81;4316979;32;20185;-60
2022/10/29 02:02:33;;;;;;;2.53;1.30;;;;;;;14.99;83.42;96243.69;4336965;32;20186;-60
2022/10/29 02:05:11;;;;;;;0.53;0.53;;;;;;;14.94;83.36;96252.59;4333106;32;20228;-60
2022/10/29 02:07:59;;;;;;;1.13;1.03;;;;;;;14.93;83.30;96258.25;4341220;32;20177;-59
2022/10/29 02:10:33;;;;;;;0.53;0.53;;;;;;;14.84;83.67;96254.69;4326769;32;20186;-59
2022/10/29 02:12:59;;;;;;;1.17;1.17;;;;;;;14.88;83.14;96259.13;4329249;32;20244;-60
2022/10/29 02:15:36;;;;;;;3.03;1.13;;;;;;;14.87;82.89;96257.56;4343629;32;20209;-59
2022/10/29 02:18:05;;;;;;;2.63;1.47;;;;;;;14.97;81.82;96248.53;4320756;32;20193;-60
2022/10/29 02:20:30;;;;;;;0.40;0.40;;;;;;;14.91;83.42;96247.84;4343167;32;20212;-60
2022/10/29 02:22:56;;;;;;;1.47;0.93;;;;;;;15.01;82.16;96244.16;4328275;32;20253;-59
2022/10/29 02:25:22;;;;;;;0.80;0.80;;;;;;;14.96;81.61;96249.66;4343469;32;20200;-59
2022/10/29 02:27:47;;;;;;;8.30;0.93;;;;;;;14.79;83.08;96251.00;4324763;33;20195;-59
2022/10/29 02:30:13;;;;;;;0.67;0.67;;;;;;;14.79;83.93;96252.88;4341182;32;20178;-60
2022/10/29 02:32:38;;;;;;;0.87;0.87;;;;;;;14.81;83.71;96252.59;4344094;32;20239;-60
2022/10/29 02:35:04;;;;;;;0.87;0.87;;;;;;;14.87;82.79;96256.75;4342821;32;20216;-59
2022/10/29 02:37:30;;;;;;;1.20;1.07;;;;;;;14.94;82.79;96251.81;4327424;32;20220;-60
2022/10/29 02:39:55;;;;;;;0.57;0.57;;;;;;;14.85;82.67;96249.03;4342594;32;20245;-59
2022/10/29 02:42:20;;;;;;;3.57;0.70;;;;;;;14.84;83.39;96250.13;4330813;32;20259;-60
2022/10/29 02:44:46;;;;;;;1.40;1.10;;;;;;;14.79;83.10;96250.22;4324353;33;20193;-60
2022/10/29 02:47:11;;;;;;;0.90;0.90;;;;;;;14.65;84.82;96239.53;4342556;32;20194;-59
2022/10/29 02:49:36;;;;;;;0.80;0.80;;;;;;;14.74;84.56;96234.31;4344731;32;20193;-59
2022/10/29 02:52:02;;;;;;;1.60;1.03;;;;;;;14.69;84.74;96239.75;4332430;32;20210;-60
2022/10/29 02:54:27;;;;;;;0.40;0.40;;;;;;;14.73;84.49;96235.41;4330034;32;20241;-59
2022/10/29 02:56:53;;;;;;;1.10;0.80;;;;;;;14.75;83.67;96228.66;4343213;32;20184;-60
2022/10/29 02:59:18;;;;;;;0.60;0.60;;;;;;;14.68;84.01;96233.59;4345007;32;20205;-59
2022/10/29 03:01:43;;;;;;;0.80;0.80;;;;;;;14.79;83.40;96223.50;4344217;32;20194;-59
2022/10/29 03:04:10;;;;;;;1.30;0.60;;;;;;;14.77;83.13;96226.47;4338865;32;20244;-59
2022/10/29 03:06:36;;;;;;;0.83;0.83;;;;;;;14.76;82.55;96224.09;4321188;32;20197;-59
2022/10/29 03:09:02;;;;;;;3.27;1.07;;;;;;;14.82;81.85;96217.56;4326060;32;20189;-60
2022/10/29 03:11:28;;;;;;;2.87;1.13;;;;;;;14.80;81.64;96222.41;4330806;32;20192;-60
2022/10/29 03:13:53;;;;;;;1.13;1.00;;;;;;;14.90;80.01;96230.25;4338753;32;20185;-59
2022/10/29 03:16:18;;;;;;;1.03;1.00;;;;;;;14.85;81.58;96242.91;4345409;32;20207;-60
2022/10/29 03:18:44;;;;;;;0.80;0.80;;;;;;;14.79;82.72;96240.31;4344041;32;20185;-59
2022/10/29 03:21:09;;;;;;;0.63;0.63;;;;;;;14.64;83.80;96237.94;4330323;32;22365;-59
2022/10/29 03:23:34;;;;;;;0.93;0.93;;;;;;;14.79;82.26;96234.97;4329772;32;20203;-59
2022/10/29 03:26:00;;;;;;;0.80;0.73;;;;;;;14.82;80.80;96233.59;4331425;32;20193;-59
2022/10/29 03:28:27;;;;;;;1.20;1.10;;;;;;;14.77;81.52;96233.69;4323599;32;20185;-59
2022/10/29 03:30:53;;;;;;;0.77;0.60;;;;;;;14.84;81.03;96244.78;4330105;32;20198;-59
2022/10/29 03:33:18;;;;;;;0.80;0.80;;;;;;;14.87;80.62;96236.19;4338596;32;20206;-59
2022/10/29 03:35:43;;;;;;;8.23;2.03;;;;;;;14.90;81.03;96240.94;4330578;32;20185;-60
2022/10/29 03:38:09;;;;;;;2.77;1.27;;;;;;;14.94;79.88;96241.13;4344072;32;20213;-60
2022/10/29 03:40:34;;;;;;;0.47;0.47;;;;;;;14.85;78.93;96242.91;4342586;32;20212;-60
2022/10/29 03:43:00;;;;;;;0.40;0.40;;;;;;;14.83;79.49;96234.38;4327648;32;20200;-60
2022/10/29 03:45:25;;;;;;;0.83;0.83;;;;;;;14.83;79.38;96243.19;4329118;32;20193;-59
2022/10/29 03:47:51;;;;;;;4.67;1.30;;;;;;;14.86;79.29;96239.12;4337740;32;20190;-60
2022/10/29 03:50:16;;;;;;;1.17;1.17;;;;;;;14.88;79.27;96234.28;4331905;33;20208;-60
2022/10/29 03:52:41;;;;;;;0.87;0.87;;;;;;;14.72;79.23;96239.16;4329004;33;20209;-60
2022/10/29 03:55:07;;;;;;;0.50;0.50;;;;;;;14.70;79.24;96235.97;4330379;33;20186;-59
2022/10/29 03:57:33;;;;;;;0.80;0.80;;;;;;;14.70;78.76;96230.66;4343387;32;20194;-59
2022/10/29 03:59:59;;;;;;;1.53;0.93;;;;;;;14.75;78.68;96228.66;4329998;32;20263;-60
2022/10/29 04:02:24;;;;;;;0.83;0.83;;;;;;;14.68;78.26;96227.47;4341345;33;20208;-60
2022/10/29 04:04:50;;;;;;;0.83;0.70;;;;;;;14.55;78.72;96229.03;4344734;32;20257;-59
2022/10/29 04:07:15;;;;;;;1.17;0.80;;;;;;;14.67;78.80;96232.03;4330275;33;20197;-60
2022/10/29 04:09:40;;;;;;;0.70;0.70;;;;;;;14.60;78.54;96226.28;4343069;33;20200;-60
2022/10/29 04:12:07;;;;;;;2.63;1.43;;;;;;;14.48;79.16;96222.50;4343120;33;20184;-60
2022/10/29 04:14:32;;;;;;;21.33;1.30;;;;;;;14.26;79.94;96226.59;4327057;33;20204;-60
2022/10/29 04:16:57;;;;;;;2.30;1.57;;;;;;;14.23;80.50;96227.19;4343732;32;20186;-59
2022/10/29 04:19:23;;;;;;;0.90;0.90;;;;;;;14.34;80.17;96231.25;4340121;33;20208;-60
2022/10/29 04:21:49;;;;;;;1.30;1.20;;;;;;;14.35;80.05;96227.50;4330182;33;20231;-60
2022/10/29 04:24:14;;;;;;;2.73;1.37;;;;;;;14.38;80.05;96224.25;4329206;33;20190;-60
2022/10/29 04:26:41;;;;;;;2.10;1.60;;;;;;;14.48;79.44;96227.84;4343106;33;20257;-60
2022/10/29 04:29:06;;;;;;;0.83;0.83;;;;;;;14.37;79.82;96229.88;4342847;33;20197;-59
2022/10/29 04:31:32;;;;;;;0.50;0.40;;;;;;;14.42;79.63;96227.94;4343249;33;20180;-60
2022/10/29 04:33:57;;;;;;;0.90;0.60;;;;;;;14.49;79.56;96232.09;4343275;32;20213;-60
2022/10/29 04:36:22;;;;;;;1.10;1.10;;;;;;;14.50;79.42;96229.16;4329461;33;20193;-59
2022/10/29 04:38:49;;;;;;;2.53;0.83;;;;;;;14.56;79.19;96235.16;4342631;32;20204;-59
2022/10/29 04:41:14;;;;;;;1.00;0.90;;;;;;;14.56;79.92;96235.16;4329695;33;20196;-60
2022/10/29 04:43:39;;;;;;;0.93;0.87;;;;;;;14.55;80.20;96228.28;4324868;33;20308;-59
2022/10/29 04:46:05;;;;;;;0.50;0.50;;;;;;;14.40;79.55;96224.78;4330334;32;20197;-59
2022/10/29 04:48:30;;;;;;;2.23;1.17;;;;;;;14.47;79.55;96223.59;4343724;32;20209;-60
2022/10/29 04:50:55;;;;;;;0.80;0.80;;;;;;;14.48;79.08;96220.63;4343413;33;20212;-59
2022/10/29 04:53:21;;;;;;;2.27;0.90;;;;;;;14.54;78.77;96224.00;4329775;33;20255;-60
2022/10/29 04:55:46;;;;;;;2.00;0.90;;;;;;;14.57;78.84;96220.72;4345032;32;20189;-59
2022/10/29 04:58:14;;;;;;;6.33;0.93;;;;;;;14.29;79.59;96222.56;4325736;33;20182;-60
2022/10/29 05:00:40;;;;;;;1.80;0.80;;;;;;;14.24;79.63;96218.09;4338474;32;20184;-60
2022/10/29 05:03:05;;;;;;;0.60;0.60;;;;;;;14.25;79.65;96218.88;4329773;33;20246;-60
2022/10/29 05:05:31;;;;;;;2.20;0.80;;;;;;;13.98;80.58;96214.28;4330277;33;20186;-59
2022/10/29 05:08:01;;;;;;;1.63;0.57;;;;;;;13.94;80.93;96208.72;4343348;32;20258;-60
2022/10/29 05:10:29;;;;;;;1.23;1.03;;;;;;;14.01;80.74;96211.03;4331548;32;20197;-60
2022/10/29 05:12:59;;;;;;;0.30;0.30;;;;;;;14.09;80.52;96205.03;4346558;32;20193;-59
2022/10/29 05:15:25;;;;;;;0.80;0.80;;;;;;;14.04;80.32;96213.13;4333034;32;20261;-60
2022/10/29 05:17:51;;;;;;;1.57;0.90;;;;;;;14.11;80.30;96208.19;4331639;32;20190;-60
2022/10/29 05:20:16;;;;;;;1.43;1.00;;;;;;;14.27;79.75;96217.50;4346917;32;20244;-60
2022/10/29 05:22:41;;;;;;;0.97;0.97;;;;;;;14.34;79.28;96212.56;4344765;32;20177;-60
2022/10/29 05:25:07;;;;;;;0.63;0.63;;;;;;;14.24;79.35;96204.75;4332362;32;20232;-60
2022/10/29 05:27:32;;;;;;;0.87;0.87;;;;;;;14.13;79.61;96214.03;4346197;32;20193;-60
2022/10/29 05:29:57;;;;;;;2.53;1.03;;;;;;;14.26;79.29;96221.28;4332489;32;20189;-60
2022/10/29 05:32:23;;;;;;;3.10;1.47;;;;;;;14.36;78.94;96222.94;4332208;32;20208;-60
2022/10/29 05:34:48;;;;;;;1.20;1.07;;;;;;;14.33;78.90;96227.03;4345363;32;20224;-60
2022/10/29 05:37:13;;;;;;;1.00;1.00;;;;;;;14.33;78.73;96227.03;4332172;32;20224;-60
2022/10/29 05:39:39;;;;;;;0.30;0.30;;;;;;;14.40;78.70;96230.09;4337534;32;20235;-60
2022/10/29 05:42:04;;;;;;;1.07;0.60;;;;;;;14.34;79.30;96223.25;4332539;32;20197;-60
2022/10/29 05:44:30;;;;;;;9.63;1.47;;;;;;;14.17;79.45;96223.00;4346267;32;20234;-60
2022/10/29 05:46:55;;;;;;;0.57;0.57;;;;;;;14.21;79.53;96223.22;4345935;32;20185;-59
2022/10/29 05:49:20;;;;;;;4.73;1.00;;;;;;;13.92;80.13;96220.78;4332015;32;20232;-65
2022/10/29 05:51:46;;;;;;;0.87;0.87;;;;;;;13.88;80.31;96215.25;4347130;32;20197;-60
2022/10/29 05:54:11;;;;;;;0.77;0.67;;;;;;;13.93;80.06;96217.03;4341803;32;20271;-60
2022/10/29 05:56:36;;;;;;;10.00;1.20;;;;;;;14.02;79.92;96216.06;4343296;32;20213;-59
2022/10/29 05:59:01;;;;;;;1.40;1.30;;;;;;;14.17;79.61;96208.88;4337130;32;20177;-60
2022/10/29 06:01:27;;;;;;;0.73;0.40;;;;;;;14.33;78.84;96216.34;4345113;32;20193;-59
2022/10/29 06:03:52;;;;;;;1.27;0.77;;;;;;;14.34;78.77;96223.25;4345291;32;20185;-60
2022/10/29 06:06:17;;;;;;;0.70;0.70;;;;;;;14.30;78.71;96219.59;4347890;32;20239;-60
2022/10/29 06:08:43;;;;;;;0.93;0.93;;;;;;;14.30;78.93;96216.12;4340804;32;20205;-59
2022/10/29 06:11:08;;;;;;;1.03;0.60;;;;;;;14.38;78.52;96226.91;4329037;32;20247;-59
2022/10/29 06:13:34;;;;;;;4.43;1.10;;;;;;;14.36;78.32;96228.28;4342279;32;20258;-59
2022/10/29 06:15:59;;;;;;;1.90;0.93;;;;;;;14.48;77.98;96238.53;4340445;32;20205;-60
2022/10/29 06:18:26;;;;;;;1.00;1.00;;;;;;;14.48;78.03;96242.00;4330927;32;20235;-59
2022/10/29 06:20:52;;;;;;;0.57;0.57;;;;;;;14.37;79.12;96248.56;4338564;32;20204;-60
2022/10/29 06:23:18;;;;;;;2.43;1.20;;;;;;;14.35;79.97;96243.50;4337642;32;20181;-59
2022/10/29 06:25:43;;;;;;;0.27;0.27;;;;;;;14.51;78.79;96243.28;4344455;32;20205;-59
2022/10/29 06:28:10;;;;;;;0.43;0.43;;;;;;;14.50;78.12;96239.81;4344656;32;20220;-59
2022/10/29 06:30:36;;;;;;;3.27;1.00;;;;;;;14.57;78.59;96236.75;4345200;32;20219;-59
2022/10/29 06:33:03;;;;;;;0.93;0.70;;;;;;;14.54;78.67;96232.81;4345700;32;20193;-59
2022/10/29 06:35:30;;;;;;;0.60;0.60;;;;;;;14.55;79.37;96233.59;4331466;32;20292;-60
2022/10/29 06:37:55;;;;;;;1.93;0.83;;;;;;;14.48;78.33;96230.53;4331177;32;20233;-59
2022/10/29 06:40:20;;;;;;;1.27;0.67;;;;;;;14.55;78.34;96238.94;4345486;32;20185;-66
2022/10/29 06:42:46;;;;;;;3.63;0.77;;;;;;;14.62;78.03;96239.34;4333133;32;20227;-59
2022/10/29 06:45:12;;;;;;;2.73;0.90;;;;;;;14.60;77.70;96242.28;4331427;32;20233;-59
2022/10/29 06:47:41;;;;;;;0.47;0.47;;;;;;;14.62;78.82;96250.00;4344027;32;20184;-59
2022/10/29 06:50:08;;;;;;;1.50;0.83;;;;;;;14.63;78.34;96252.38;4330875;32;20235;-60
2022/10/29 06:52:33;;;;;;;2.90;0.73;;;;;;;14.62;79.58;96252.69;4328189;32;20193;-60
2022/10/29 06:55:01;;;;;;;2.73;1.50;;;;;;;14.60;79.66;96252.19;4327126;32;20229;-59
2022/10/29 06:57:27;;;;;;;0.67;0.67;;;;;;;14.67;79.61;96252.59;4343383;32;20181;-59
2022/10/29 06:59:52;;;;;;;0.40;0.40;;;;;;;14.63;80.35;96254.28;4330892;32;20219;-59
2022/10/29 07:02:19;;;;;;;0.70;0.63;;;;;;;14.62;80.87;96255.34;4345497;32;20212;-59
2022/10/29 07:04:44;;;;;;;3.93;2.03;;;;;;;14.66;80.35;96253.69;4341049;32;20226;-61
2022/10/29 07:07:10;;;;;;;1.47;0.80;;;;;;;14.72;80.32;96255.19;4338341;32;20273;-59
2022/10/29 07:09:35;;;;;;;0.40;0.40;;;;;;;14.70;81.10;96254.69;4344669;32;20247;-59
2022/10/29 07:12:01;;;;;;;11.63;1.63;;;;;;;14.76;81.39;96250.81;4344678;32;20207;-59
2022/10/29 07:14:26;;;;;;;2.60;1.43;;;;;;;14.81;81.13;96248.03;4330291;32;20204;-60
2022/10/29 07:16:52;;;;;;;0.50;0.50;;;;;;;14.87;80.10;96246.88;4343940;32;20212;-60
2022/10/29 07:19:17;;;;;;;3.43;1.30;;;;;;;14.94;80.51;96254.50;4331973;33;20268;-59
2022/10/29 07:21:43;;;;;;;3.30;1.03;;;;;;;15.02;78.72;96249.22;4330897;32;20230;-60
2022/10/29 07:24:08;;;;;;;15.50;1.13;;;;;;;15.16;78.92;96253.78;4337105;32;20227;-60
2022/10/29 07:26:34;;;;;;;0.73;0.73;;;;;;;15.22;75.88;96255.25;4329589;32;20231;-60
2022/10/29 07:29:00;;;;;;;1.17;0.90;;;;;;;15.31;78.53;96250.78;4327821;33;20251;-59
2022/10/29 07:31:25;;;;;;;9.70;2.13;;;;;;;15.40;77.92;96251.63;4339992;32;20190;-59
2022/10/29 07:33:51;;;;;;;2.97;1.43;;;;;;;15.44;76.12;96255.31;4332116;32;20276;-65
2022/10/29 07:36:16;;;;;;;0.77;0.77;;;;;;;15.51;73.52;96253.00;4344770;32;20192;-60
2022/10/29 07:38:41;;;;;;;1.13;0.87;;;;;;;15.61;72.59;96260.03;4343287;32;20250;-59
2022/10/29 07:41:07;;;;;;;4.93;1.03;;;;;;;15.69;73.11;96273.50;4343031;32;20193;-60
2022/10/29 07:43:32;;;;;;;0.80;0.80;;;;;;;15.75;74.00;96266.16;4344245;32;20190;-60
2022/10/29 07:45:57;;;;;;;1.13;0.77;;;;;;;15.80;71.93;96272.16;4336115;32;20203;-60
2022/10/29 07:48:23;;;;;;;0.70;0.70;;;;;;;15.85;71.81;96271.25;4331065;32;20189;-60
2022/10/29 07:50:49;;;;;;;12.33;0.97;;;;;;;15.89;71.54;96266.09;4344809;32;20185;-60
2022/10/29 07:53:14;;;;;;;4.87;1.60;;;;;;;15.95;72.32;96265.69;4338068;32;20224;-59
2022/10/29 07:55:40;;;;;;;0.70;0.70;;;;;;;16.10;70.59;96267.19;4335767;32;20197;-60
2022/10/29 07:58:09;;;;;;;3.20;1.27;;;;;;;16.08;71.54;96258.69;4344154;32;20215;-60
2022/10/29 08:00:37;;;;;;;0.73;0.73;;;;;;;16.15;70.58;96259.06;4330917;33;20193;-60
2022/10/29 08:03:03;;;;;;;2.00;1.30;;;;;;;16.18;70.48;96263.00;4330427;33;20219;-60
2022/10/29 08:05:29;;;;;;;0.40;0.40;;;;;;;16.22;70.36;96256.72;4341634;33;20239;-60
2022/10/29 08:07:55;;;;;;;3.47;1.30;;;;;;;16.26;70.30;96255.00;4328783;32;20300;-59
2022/10/29 08:10:21;;;;;;;1.40;1.37;;;;;;;16.32;70.20;96259.16;4341063;33;20202;-65
2022/10/29 08:12:51;;;;;;;4.57;3.27;;;;;;;16.34;70.97;96262.31;4343030;33;20227;-60
2022/10/29 08:15:18;;;;;;;1.53;1.53;;;;;;;16.38;70.53;96259.81;4327103;33;20243;-59
2022/10/29 08:17:43;;;;;;;1.30;1.20;;;;;;;16.40;71.65;96261.09;4320748;33;20225;-59
2022/10/29 08:20:09;;;;;;;1.67;1.57;;;;;;;16.43;70.91;96251.63;4326202;33;20228;-59
2022/10/29 08:22:34;;;;;;;5.50;1.27;;;;;;;16.47;70.41;96250.72;4329907;33;20292;-60
2022/10/29 08:24:59;;;;;;;1.00;0.77;;;;;;;16.50;70.60;96250.09;4330354;33;20253;-59
2022/10/29 08:27:25;;;;;;;4.20;1.57;;;;;;;16.54;70.55;96249.50;4330811;33;20244;-59
2022/10/29 08:29:50;;;;;;;0.27;0.27;;;;;;;16.58;70.42;96251.25;4345606;33;20268;-59
2022/10/29 08:32:15;;;;;;;1.00;0.97;;;;;;;16.60;70.84;96253.63;4342784;33;20224;-60
2022/10/29 08:34:41;;;;;;;5.73;1.47;;;;;;;16.60;71.39;96248.28;4342816;33;20284;-60
2022/10/29 08:37:06;;;;;;;2.00;1.27;;;;;;;16.63;71.41;96253.00;4329998;33;20215;-59
2022/10/29 08:39:31;;;;;;;1.67;1.10;;;;;;;16.65;71.09;96251.63;4342631;33;20194;-60
2022/10/29 08:42:04;;;;;;;4.93;1.20;;;;;;;16.67;71.56;96244.06;4342626;32;20245;-59
2022/10/29 08:44:58;;;;;;;3.13;0.93;;;;;;;16.70;71.77;96248.00;4340723;32;20232;-60
2022/10/29 08:47:24;;;;;;;0.93;0.93;;;;;;;16.73;71.75;96244.72;4343044;32;20190;-59
2022/10/29 08:50:08;;;;;;;0.97;0.73;;;;;;;16.77;72.39;96248.38;4343785;32;20216;-60
2022/10/29 08:52:38;;;;;;;0.83;0.83;;;;;;;16.82;72.25;96248.25;4336970;32;20205;-60
2022/10/29 08:55:32;;;;;;;1.10;0.97;;;;;;;16.84;72.57;96246.00;4346632;32;20197;-60
2022/10/29 08:58:10;;;;;;;1.13;1.10;;;;;;;16.87;72.90;96242.72;4325360;32;20189;-60
2022/10/29 09:00:40;;;;;;;1.00;0.93;;;;;;;16.91;72.20;96238.31;4344952;32;20190;-60
2022/10/29 09:03:10;;;;;;;1.67;1.00;;;;;;;16.95;72.16;96238.50;4333969;32;20197;-60
2022/10/29 09:06:06;;;;;;;0.60;0.60;;;;;;;17.03;71.85;96241.22;4346772;32;20204;-59
2022/10/29 09:08:39;;;;;;;2.40;1.60;;;;;;;17.09;71.54;96239.94;4318255;32;20198;-60
2022/10/29 09:11:14;;;;;;;0.70;0.70;;;;;;;17.18;70.57;96248.03;4330268;32;20190;-59
2022/10/29 09:14:16;;;;;;;0.97;0.77;;;;;;;17.22;70.18;96245.50;4333094;32;20247;-60
2022/10/29 09:17:07;;;;;;;1.73;1.63;;;;;;;17.29;69.11;96248.50;4332406;32;20222;-60
2022/10/29 09:19:52;;;;;;;2.13;1.47;;;;;;;17.30;69.37;96252.78;4332446;32;20300;-60
2022/10/29 09:22:29;;;;;;;2.77;1.60;;;;;;;17.31;68.87;96246.31;4345890;32;20235;-60
2022/10/29 09:25:23;;;;;;;1.70;1.60;;;;;;;17.28;69.08;96246.94;4342834;32;20230;-60
2022/10/29 09:28:10;;;;;;;4.80;1.43;;;;;;;17.31;68.98;96252.47;4327602;32;20203;-60
2022/10/29 09:31:00;;;;;;;0.80;0.77;;;;;;;17.33;69.01;96244.09;4324843;32;20265;-60
2022/10/29 09:33:26;;;;;;;1.70;1.20;;;;;;;17.36;68.93;96254.22;4330760;32;20248;-60
2022/10/29 09:35:54;;;;;;;3.37;0.83;;;;;;;17.45;67.68;96252.34;4348087;32;20253;-59
2022/10/29 09:38:22;;;;;;;1.57;0.90;;;;;;;17.49;68.05;96259.44;4345842;32;20193;-59
2022/10/29 09:40:48;;;;;;;2.50;1.03;;;;;;;17.59;66.05;96252.97;4342445;32;20190;-60
2022/10/29 09:43:37;;;;;;;5.37;1.50;;;;;;;17.66;65.71;96250.66;4321596;33;20273;-60
2022/10/29 09:46:26;;;;;;;6.63;1.30;;;;;;;17.68;66.00;96255.69;4337619;32;20181;-59
2022/10/29 09:49:06;;;;;;;3.50;1.13;;;;;;;17.75;65.95;96254.12;4344532;32;20193;-60
2022/10/29 09:51:43;;;;;;;0.70;0.70;;;;;;;17.76;66.06;96253.00;4345280;32;20252;-60
2022/10/29 09:54:08;;;;;;;0.60;0.60;;;;;;;17.79;65.82;96247.00;4330961;32;20197;-60
2022/10/29 09:56:34;;;;;;;1.77;1.63;;;;;;;17.79;65.81;96247.00;4344690;32;20250;-60
2022/10/29 09:59:28;;;;;;;3.70;1.43;;;;;;;17.87;64.97;96242.75;4330798;32;20254;-60
2022/10/29 10:01:55;;;;;;;0.47;0.47;;;;;;;17.93;65.03;96251.41;4340976;32;20189;-60
2022/10/29 10:04:31;;;;;;;1.10;1.10;;;;;;;17.95;65.24;96241.16;4343258;32;20185;-60
2022/10/29 10:07:04;;;;;;;1.13;1.03;;;;;;;17.96;64.95;96235.47;4335645;32;20193;-59
2022/10/29 10:10:01;;;;;;;5.23;1.00;;;;;;;17.97;64.70;96237.06;4334523;32;20190;-60
2022/10/29 10:12:42;;;;;;;2.10;0.73;;;;;;;18.02;63.87;96233.41;4343695;32;20189;-60
2022/10/29 10:15:19;;;;;;;0.37;0.23;;;;;;;18.05;63.74;96227.41;4332203;32;20213;-59
2022/10/29 10:18:01;;;;;;;1.70;1.60;;;;;;;18.07;63.87;96230.56;4341106;32;20182;-60
2022/10/29 10:20:28;;;;;;;0.80;0.80;;;;;;;18.11;62.85;96224.22;4334503;32;20255;-60
2022/10/29 10:22:53;;;;;;;1.37;0.67;;;;;;;18.14;64.72;96226.28;4331232;32;20197;-60
2022/10/29 10:25:39;;;;;;;1.00;1.00;;;;;;;18.17;64.17;96224.84;4346930;32;20177;-60
2022/10/29 10:28:28;;;;;;;3.17;1.23;;;;;;;18.24;65.23;96213.63;4344607;32;20197;-60
2022/10/29 10:31:02;;;;;;;0.63;0.63;;;;;;;18.27;67.98;96213.78;4344084;32;20193;-60
2022/10/29 10:33:30;;;;;;;2.73;1.07;;;;;;;18.32;65.23;96205.53;4344250;32;20189;-59
2022/10/29 10:36:01;;;;;;;2.57;1.13;;;;;;;18.38;63.20;96188.13;4345499;32;20190;-60
2022/10/29 10:38:26;;;;;;;1.30;0.87;;;;;;;18.52;62.13;96195.97;4340170;32;20186;-59
2022/10/29 10:41:03;;;;;;;0.87;0.87;;;;;;;18.54;62.60;96191.88;4332485;32;20204;-60
2022/10/29 10:43:28;;;;;;;0.50;0.50;;;;;;;18.60;63.63;96194.41;4330534;32;20206;-60
2022/10/29 10:45:57;;;;;;;2.37;1.20;;;;;;;18.65;64.14;96196.94;4331270;32;20193;-60
2022/10/29 10:48:26;;;;;;;3.53;1.07;;;;;;;18.64;63.83;96189.97;4346735;32;20207;-65
2022/10/29 10:51:08;;;;;;;0.80;0.80;;;;;;;18.64;63.61;96188.06;4342751;32;20185;-60
2022/10/29 10:53:34;;;;;;;0.70;0.57;;;;;;;18.67;64.13;96183.97;4331391;32;20223;-60
2022/10/29 10:55:59;;;;;;;3.30;1.70;;;;;;;18.71;65.03;96179.50;4330870;32;20228;-60
2022/10/29 10:58:45;;;;;;;0.50;0.37;;;;;;;18.80;64.24;96177.56;4331723;32;20232;-60
2022/10/29 11:01:36;;;;;;;1.07;0.97;;;;;;;18.77;65.66;96172.81;4344166;32;20264;-60
2022/10/29 11:04:15;;;;;;;0.60;0.60;;;;;;;18.94;62.63;96167.34;4327882;33;20201;-60
2022/10/29 11:06:47;;;;;;;0.60;0.60;;;;;;;18.98;64.65;96168.28;4334706;32;20302;-60
2022/10/29 11:09:32;;;;;;;8.90;0.90;;;;;;;18.95;63.75;96171.62;4344078;32;20463;-60
2022/10/29 11:12:07;;;;;;;5.43;1.83;;;;;;;19.03;62.31;96159.25;4321167;33;20208;-60
2022/10/29 11:14:44;;;;;;;0.53;0.53;;;;;;;19.02;64.06;96161.13;4340609;32;20208;-60
2022/10/29 11:17:50;;;;;;;2.07;1.40;;;;;;;19.03;65.57;96165.41;4329835;32;20223;-60
2022/10/29 11:20:29;;;;;;;4.37;1.47;;;;;;;19.07;64.36;96160.97;4321896;32;20193;-60
2022/10/29 11:22:57;;;;;;;3.20;1.03;;;;;;;19.16;63.47;96152.81;4329111;32;20184;-60
2022/10/29 11:25:53;;;;;;;1.17;0.70;;;;;;;19.17;64.69;96155.16;4344025;32;20205;-60
2022/10/29 11:28:28;;;;;;;1.00;1.00;;;;;;;19.20;63.71;96143.75;4343437;32;20197;-59
2022/10/29 11:31:02;;;;;;;0.57;0.43;;;;;;;19.22;64.36;96144.22;4341315;32;20199;-60
2022/10/29 11:33:57;;;;;;;2.67;0.97;;;;;;;19.16;65.42;96142.84;4342123;32;20243;-60
2022/10/29 11:36:26;;;;;;;1.00;1.00;;;;;;;19.22;64.35;96140.75;4334506;32;20210;-61
2022/10/29 11:39:14;;;;;;;0.80;0.80;;;;;;;19.39;62.21;96129.06;4336895;32;20235;-60
2022/10/29 11:41:45;;;;;;;4.57;1.27;;;;;;;19.41;62.41;96126.81;4343291;32;20214;-59
2022/10/29 11:44:12;;;;;;;1.77;1.17;;;;;;;19.34;63.71;96129.25;4343550;32;20236;-60
2022/10/29 11:46:52;;;;;;;3.30;2.33;;;;;;;19.39;64.12;96124.47;4328126;32;20208;-60